Sandra Hugh — WDD9019 — position and weather

sailwx.info

Track history (hours):
 
Tides and Currents Weather Stations Pressure Air Temp Water Temp Dewpoint Dewpoint Depression Visibility Wind Speed Wind Dir Waves Ship Positions

Sandra Hugh

Owner: Sortwell Inc., DBA AmNav Maritime Services, Oakland, CA. More information available from US FCC via Universal Licensing System and Coast Guard Vessel Documentation Center.

Last reported at 2016-Aug-27 03:34 UTC. Time now 2016-Aug-27 04:40 UTC.
Position N 37°49' W 122°19'.

Length 24 m; draft 4.9 m.

Type: Tug. MMSI: 367305920.

Date/timePositionNaut miles runAvg speedWind from/ knotsBaromVisibWave heightAir tempDewpointWater temp
2016-Aug-27 03:34N 37°49' W 122°19'0 0.0
2016-Aug-27 02:34N 37°49' W 122°19'0 0.0
2016-Aug-27 01:34N 37°49' W 122°19'0 0.0
2016-Aug-27 00:34N 37°49' W 122°19'0 0.0
2016-Aug-26 23:34N 37°49' W 122°19'0 0.0
2016-Aug-26 22:34N 37°49' W 122°19'0 0.0
2016-Aug-26 21:34N 37°49' W 122°19'0 0.0
2016-Aug-26 20:33N 37°49' W 122°19'0 0.0
2016-Aug-26 19:33N 37°49' W 122°19'2 1.9
2016-Aug-26 18:33N 37°48' W 122°18'0 0.1
2016-Aug-26 17:34N 37°48' W 122°18'2 1.8
2016-Aug-26 16:34N 37°49' W 122°19'0 0.0
2016-Aug-26 15:34N 37°49' W 122°19'0 0.0
2016-Aug-26 14:34N 37°49' W 122°19'0 0.0
2016-Aug-26 13:34N 37°49' W 122°19'0 0.0
2016-Aug-26 12:34N 37°49' W 122°19'0 0.0
2016-Aug-26 11:34N 37°49' W 122°19'0 0.0
2016-Aug-26 10:34N 37°49' W 122°19'0 0.0
2016-Aug-26 09:33N 37°49' W 122°19'0 0.0
2016-Aug-26 08:34N 37°49' W 122°19'0 0.0
2016-Aug-26 07:34N 37°49' W 122°19'1 0.9
2016-Aug-26 06:33N 37°49' W 122°20'8 3.9
2016-Aug-26 04:30N 37°56' W 122°25'0 0.0
2016-Aug-26 03:33N 37°56' W 122°25'0 0.3
2016-Aug-26 02:32N 37°55' W 122°25'0 0.0
2016-Aug-26 01:33N 37°55' W 122°25'0 0.1
2016-Aug-26 00:33N 37°55' W 122°25'7 6.7
2016-Aug-25 23:34N 37°49' W 122°21'2 2.1
2016-Aug-25 22:34N 37°49' W 122°19'0 0.0
2016-Aug-25 21:34N 37°49' W 122°19'0 0.0
2016-Aug-25 20:34N 37°49' W 122°19'0 0.0
2016-Aug-25 19:34N 37°49' W 122°19'0 0.0
2016-Aug-25 18:34N 37°49' W 122°19'0 0.0
2016-Aug-25 17:33N 37°49' W 122°19'0 0.0
2016-Aug-25 16:33N 37°49' W 122°19'0 0.0
2016-Aug-25 15:33N 37°49' W 122°19'0 0.0
2016-Aug-25 14:34N 37°49' W 122°19'0 0.0
2016-Aug-25 13:33N 37°49' W 122°19'0 0.0
2016-Aug-25 12:33N 37°49' W 122°19'0 0.0
2016-Aug-25 11:34N 37°49' W 122°19'0 0.0
2016-Aug-25 10:33N 37°49' W 122°19'0 0.0
2016-Aug-25 09:33N 37°49' W 122°19'0 0.0
2016-Aug-25 08:33N 37°49' W 122°19'0 0.0
2016-Aug-25 07:33N 37°49' W 122°19'0 0.0
2016-Aug-25 06:33N 37°49' W 122°19'0 0.0
2016-Aug-25 04:33N 37°49' W 122°19'0 0.0
2016-Aug-25 03:34N 37°49' W 122°19'1 1.5
2016-Aug-25 02:34N 37°49' W 122°20'2 1.7
2016-Aug-25 01:34N 37°48' W 122°18'2 1.8
2016-Aug-25 00:33N 37°48' W 122°21'1 1.5
2016-Aug-24 23:33N 37°48' W 122°19'2 1.6
2016-Aug-24 22:33N 37°49' W 122°19'0 0.0
2016-Aug-24 21:33N 37°49' W 122°19'0 0.0
2016-Aug-24 20:33N 37°49' W 122°19'0 0.0
2016-Aug-24 19:33N 37°49' W 122°19'0 0.0
2016-Aug-24 18:34N 37°49' W 122°19'0 0.0
2016-Aug-24 17:34N 37°49' W 122°19'0 0.0
2016-Aug-24 16:33N 37°49' W 122°19'0 0.0
2016-Aug-24 15:34N 37°49' W 122°19'2 2.0
2016-Aug-24 14:33N 37°48' W 122°17'1 1.4
2016-Aug-24 13:33N 37°48' W 122°19'1 0.9
2016-Aug-24 12:33N 37°48' W 122°20'0 0.4
2016-Aug-24 11:33N 37°48' W 122°21'1 0.8
2016-Aug-24 10:34N 37°49' W 122°20'1 0.9
2016-Aug-24 09:33N 37°49' W 122°19'0 0.0
2016-Aug-24 08:33N 37°49' W 122°19'0 0.0
2016-Aug-24 07:33N 37°49' W 122°19'0 0.0
2016-Aug-24 06:33N 37°49' W 122°19'0 0.0
2016-Aug-24 04:33N 37°49' W 122°19'0 0.0
2016-Aug-24 03:33N 37°49' W 122°19'0 0.0
2016-Aug-24 02:33N 37°49' W 122°19'1 1.0
2016-Aug-24 01:33N 37°49' W 122°20'2 1.7
2016-Aug-24 00:33N 37°48' W 122°22'1 0.9
2016-Aug-23 23:33N 37°48' W 122°21'1 0.7
2016-Aug-23 22:34N 37°49' W 122°20'0 0.2
2016-Aug-23 21:34N 37°49' W 122°20'1 1.0
2016-Aug-23 20:33N 37°49' W 122°19'0 0.0
2016-Aug-23 19:33N 37°49' W 122°19'7 6.8
2016-Aug-23 18:33N 37°54' W 122°25'1110.9
2016-Aug-23 17:33N 38°03' W 122°18'10 2.0
2016-Aug-23 12:29N 38°03' W 122°05'2 0.8
2016-Aug-23 09:26N 38°02' W 122°08'5 4.9
2016-Aug-23 08:28N 38°04' W 122°14'4 0.2
2016-Aug-22 13:15N 38°02' W 122°08'6 5.1
2016-Aug-22 12:05N 38°03' W 122°16'0 0.0
2016-Aug-22 11:33N 38°03' W 122°16'2 2.3
2016-Aug-22 10:34N 38°03' W 122°19'4 2.8
2016-Aug-22 09:10N 38°04' W 122°14'4 1.2
2016-Aug-22 05:32N 38°02' W 122°08'0 0.0
2016-Aug-22 04:32N 38°02' W 122°08'0 0.0
2016-Aug-22 03:33N 38°02' W 122°08'5 4.7
2016-Aug-22 02:33N 38°04' W 122°14'3 2.2
2016-Aug-22 01:21N 38°03' W 122°17'3 3.0
2016-Aug-22 00:31N 38°04' W 122°14'5 1.0
2016-Aug-21 19:33N 38°02' W 122°08'0 0.0
2016-Aug-21 18:27N 38°02' W 122°08'0 0.0
2016-Aug-21 08:25N 38°02' W 122°08'0 0.0
2016-Aug-21 07:12N 38°02' W 122°08'0 0.0
2016-Aug-21 04:28N 38°02' W 122°08'0 0.0
2016-Aug-21 02:26N 38°02' W 122°08'0 0.0
2016-Aug-21 01:33N 38°02' W 122°08'0 0.0
2016-Aug-20 18:33N 38°02' W 122°08'1 0.5
2016-Aug-20 17:33N 38°02' W 122°08'8 8.2
2016-Aug-20 16:32N 38°03' W 122°18'6 6.5
2016-Aug-20 15:33N 37°59' W 122°25'8 7.7
2016-Aug-20 14:34N 37°52' W 122°24'5 4.9
2016-Aug-20 13:34N 37°49' W 122°19'0 0.0
2016-Aug-20 12:33N 37°49' W 122°19'0 0.0
2016-Aug-20 11:34N 37°49' W 122°19'0 0.0
2016-Aug-20 10:34N 37°49' W 122°19'0 0.0
2016-Aug-20 09:34N 37°49' W 122°19'0 0.0
2016-Aug-20 08:34N 37°49' W 122°19'0 0.0
2016-Aug-20 07:34N 37°49' W 122°19'0 0.0
2016-Aug-20 06:33N 37°49' W 122°19'0 0.0
2016-Aug-20 05:34N 37°49' W 122°19'0 0.0
2016-Aug-20 04:33N 37°49' W 122°19'0 0.0
2016-Aug-20 03:34N 37°49' W 122°19'0 0.0
2016-Aug-20 02:34N 37°49' W 122°19'0 0.0
2016-Aug-20 01:34N 37°49' W 122°19'0 0.0
2016-Aug-20 00:34N 37°49' W 122°19'0 0.0
2016-Aug-19 23:33N 37°49' W 122°19'0 0.0
2016-Aug-19 22:34N 37°49' W 122°19'0 0.0
2016-Aug-19 21:34N 37°49' W 122°19'0 0.0
2016-Aug-19 20:34N 37°49' W 122°19'0 0.0
2016-Aug-19 19:33N 37°49' W 122°19'2 1.8
2016-Aug-19 18:33N 37°48' W 122°18'1 1.2
2016-Aug-19 17:34N 37°48' W 122°20'2 1.6
2016-Aug-19 16:33N 37°49' W 122°19'0 0.0
2016-Aug-19 15:33N 37°49' W 122°19'0 0.0
2016-Aug-19 14:34N 37°49' W 122°19'0 0.0
2016-Aug-19 13:34N 37°49' W 122°19'0 0.0
2016-Aug-19 12:33N 37°49' W 122°19'0 0.0
2016-Aug-19 11:33N 37°49' W 122°19'0 0.0
2016-Aug-19 10:33N 37°49' W 122°19'0 0.0
2016-Aug-19 09:33N 37°49' W 122°19'0 0.0
2016-Aug-19 08:33N 37°49' W 122°19'0 0.0
2016-Aug-19 07:34N 37°49' W 122°19'0 0.0
2016-Aug-19 06:33N 37°49' W 122°19'0 0.0
2016-Aug-19 05:34N 37°49' W 122°19'2 1.6
2016-Aug-19 04:33N 37°49' W 122°20'6 5.8
2016-Aug-19 03:33N 37°54' W 122°22'0 0.0
2016-Aug-19 02:33N 37°54' W 122°22'3 2.6
2016-Aug-19 01:33N 37°53' W 122°25'2 1.8
2016-Aug-19 00:33N 37°54' W 122°23'3 2.8
2016-Aug-18 23:33N 37°52' W 122°24'7 7.4
2016-Aug-18 22:34N 37°46' W 122°18'0 0.0
2016-Aug-18 21:33N 37°46' W 122°18'0 0.4
2016-Aug-18 20:34N 37°46' W 122°19'0 0.0
2016-Aug-18 19:34N 37°46' W 122°19'0 0.4
2016-Aug-18 18:33N 37°46' W 122°18'0 0.1
2016-Aug-18 17:33N 37°46' W 122°18'3 2.9
2016-Aug-18 16:33N 37°49' W 122°19'0 0.0
2016-Aug-18 15:34N 37°49' W 122°19'0 0.0
2016-Aug-18 14:33N 37°49' W 122°19'0 0.0
2016-Aug-18 13:33N 37°49' W 122°19'0 0.0
2016-Aug-18 12:33N 37°49' W 122°19'0 0.0
2016-Aug-18 11:33N 37°49' W 122°19'0 0.0
2016-Aug-18 10:34N 37°49' W 122°19'0 0.0
2016-Aug-18 09:33N 37°49' W 122°19'0 0.0
2016-Aug-18 08:33N 37°49' W 122°19'0 0.0
2016-Aug-18 07:34N 37°49' W 122°19'0 0.0
2016-Aug-18 06:33N 37°49' W 122°19'0 0.0
2016-Aug-18 05:33N 37°49' W 122°19'0 0.0
2016-Aug-18 04:33N 37°49' W 122°19'0 0.0
2016-Aug-18 03:33N 37°49' W 122°19'2 1.6
2016-Aug-18 02:33N 37°48' W 122°20'1 0.6
2016-Aug-18 01:33N 37°48' W 122°19'2 1.6
2016-Aug-18 00:33N 37°49' W 122°19'0 0.0
2016-Aug-17 23:33N 37°49' W 122°19'2 1.6
2016-Aug-17 22:33N 37°48' W 122°20'1 0.9
2016-Aug-17 21:33N 37°49' W 122°20'0 0.0
2016-Aug-17 20:33N 37°49' W 122°20'0 0.0
2016-Aug-17 19:33N 37°49' W 122°20'2 2.4
2016-Aug-17 18:33N 37°48' W 122°17'2 1.8
2016-Aug-17 17:33N 37°48' W 122°20'8 8.0
2016-Aug-17 16:33N 37°54' W 122°25'1 1.1
2016-Aug-17 15:33N 37°56' W 122°25'1 0.9
2016-Aug-17 14:33N 37°55' W 122°24'1 1.3
2016-Aug-17 13:33N 37°53' W 122°25'7 7.4
2016-Aug-17 12:34N 37°48' W 122°19'0 0.4
2016-Aug-17 11:34N 37°48' W 122°18'2 1.7
2016-Aug-17 10:33N 37°49' W 122°19'0 0.1
2016-Aug-17 09:33N 37°49' W 122°19'0 0.0
2016-Aug-17 08:33N 37°49' W 122°19'0 0.0
2016-Aug-17 07:33N 37°49' W 122°19'0 0.0
2016-Aug-17 06:33N 37°49' W 122°19'0 0.0
2016-Aug-17 05:33N 37°49' W 122°19'0 0.0
2016-Aug-17 04:33N 37°49' W 122°19'  
Track history (hours):
 
Tides and Currents Weather Stations Pressure Air Temp Water Temp Dewpoint Dewpoint Depression Visibility Wind Speed Wind Dir Waves Ship Positions

Sandra Hugh

Owner: Sortwell Inc., DBA AmNav Maritime Services, Oakland, CA. More information available from US FCC via Universal Licensing System and Coast Guard Vessel Documentation Center.

Last reported at 2016-Aug-27 03:34 UTC. Time now 2016-Aug-27 04:40 UTC.
Position N 37°49' W 122°19'.

Length 24 m; draft 4.9 m.

Type: Tug. MMSI: 367305920.

Date/timePositionNaut miles runAvg speedWind from/ knotsBaromVisibWave heightAir tempDewpointWater temp
2016-Aug-27 03:34N 37°49' W 122°19'0 0.0
2016-Aug-27 02:34N 37°49' W 122°19'0 0.0
2016-Aug-27 01:34N 37°49' W 122°19'0 0.0
2016-Aug-27 00:34N 37°49' W 122°19'0 0.0
2016-Aug-26 23:34N 37°49' W 122°19'0 0.0
2016-Aug-26 22:34N 37°49' W 122°19'0 0.0
2016-Aug-26 21:34N 37°49' W 122°19'0 0.0
2016-Aug-26 20:33N 37°49' W 122°19'0 0.0
2016-Aug-26 19:33N 37°49' W 122°19'2 1.9
2016-Aug-26 18:33N 37°48' W 122°18'0 0.1
2016-Aug-26 17:34N 37°48' W 122°18'2 1.8
2016-Aug-26 16:34N 37°49' W 122°19'0 0.0
2016-Aug-26 15:34N 37°49' W 122°19'0 0.0
2016-Aug-26 14:34N 37°49' W 122°19'0 0.0
2016-Aug-26 13:34N 37°49' W 122°19'0 0.0
2016-Aug-26 12:34N 37°49' W 122°19'0 0.0
2016-Aug-26 11:34N 37°49' W 122°19'0 0.0
2016-Aug-26 10:34N 37°49' W 122°19'0 0.0
2016-Aug-26 09:33N 37°49' W 122°19'0 0.0
2016-Aug-26 08:34N 37°49' W 122°19'0 0.0
2016-Aug-26 07:34N 37°49' W 122°19'1 0.9
2016-Aug-26 06:33N 37°49' W 122°20'8 3.9
2016-Aug-26 04:30N 37°56' W 122°25'0 0.0
2016-Aug-26 03:33N 37°56' W 122°25'0 0.3
2016-Aug-26 02:32N 37°55' W 122°25'0 0.0
2016-Aug-26 01:33N 37°55' W 122°25'0 0.1
2016-Aug-26 00:33N 37°55' W 122°25'7 6.7
2016-Aug-25 23:34N 37°49' W 122°21'2 2.1
2016-Aug-25 22:34N 37°49' W 122°19'0 0.0
2016-Aug-25 21:34N 37°49' W 122°19'0 0.0
2016-Aug-25 20:34N 37°49' W 122°19'0 0.0
2016-Aug-25 19:34N 37°49' W 122°19'0 0.0
2016-Aug-25 18:34N 37°49' W 122°19'0 0.0
2016-Aug-25 17:33N 37°49' W 122°19'0 0.0
2016-Aug-25 16:33N 37°49' W 122°19'0 0.0
2016-Aug-25 15:33N 37°49' W 122°19'0 0.0
2016-Aug-25 14:34N 37°49' W 122°19'0 0.0
2016-Aug-25 13:33N 37°49' W 122°19'0 0.0
2016-Aug-25 12:33N 37°49' W 122°19'0 0.0
2016-Aug-25 11:34N 37°49' W 122°19'0 0.0
2016-Aug-25 10:33N 37°49' W 122°19'0 0.0
2016-Aug-25 09:33N 37°49' W 122°19'0 0.0
2016-Aug-25 08:33N 37°49' W 122°19'0 0.0
2016-Aug-25 07:33N 37°49' W 122°19'0 0.0
2016-Aug-25 06:33N 37°49' W 122°19'0 0.0
2016-Aug-25 04:33N 37°49' W 122°19'0 0.0
2016-Aug-25 03:34N 37°49' W 122°19'1 1.5
2016-Aug-25 02:34N 37°49' W 122°20'2 1.7
2016-Aug-25 01:34N 37°48' W 122°18'2 1.8
2016-Aug-25 00:33N 37°48' W 122°21'1 1.5
2016-Aug-24 23:33N 37°48' W 122°19'2 1.6
2016-Aug-24 22:33N 37°49' W 122°19'0 0.0
2016-Aug-24 21:33N 37°49' W 122°19'0 0.0
2016-Aug-24 20:33N 37°49' W 122°19'0 0.0
2016-Aug-24 19:33N 37°49' W 122°19'0 0.0
2016-Aug-24 18:34N 37°49' W 122°19'0 0.0
2016-Aug-24 17:34N 37°49' W 122°19'0 0.0
2016-Aug-24 16:33N 37°49' W 122°19'0 0.0
2016-Aug-24 15:34N 37°49' W 122°19'2 2.0
2016-Aug-24 14:33N 37°48' W 122°17'1 1.4
2016-Aug-24 13:33N 37°48' W 122°19'1 0.9
2016-Aug-24 12:33N 37°48' W 122°20'0 0.4
2016-Aug-24 11:33N 37°48' W 122°21'1 0.8
2016-Aug-24 10:34N 37°49' W 122°20'1 0.9
2016-Aug-24 09:33N 37°49' W 122°19'0 0.0
2016-Aug-24 08:33N 37°49' W 122°19'0 0.0
2016-Aug-24 07:33N 37°49' W 122°19'0 0.0
2016-Aug-24 06:33N 37°49' W 122°19'0 0.0
2016-Aug-24 04:33N 37°49' W 122°19'0 0.0
2016-Aug-24 03:33N 37°49' W 122°19'0 0.0
2016-Aug-24 02:33N 37°49' W 122°19'1 1.0
2016-Aug-24 01:33N 37°49' W 122°20'2 1.7
2016-Aug-24 00:33N 37°48' W 122°22'1 0.9
2016-Aug-23 23:33N 37°48' W 122°21'1 0.7
2016-Aug-23 22:34N 37°49' W 122°20'0 0.2
2016-Aug-23 21:34N 37°49' W 122°20'1 1.0
2016-Aug-23 20:33N 37°49' W 122°19'0 0.0
2016-Aug-23 19:33N 37°49' W 122°19'7 6.8
2016-Aug-23 18:33N 37°54' W 122°25'1110.9
2016-Aug-23 17:33N 38°03' W 122°18'10 2.0
2016-Aug-23 12:29N 38°03' W 122°05'2 0.8
2016-Aug-23 09:26N 38°02' W 122°08'5 4.9
2016-Aug-23 08:28N 38°04' W 122°14'4 0.2
2016-Aug-22 13:15N 38°02' W 122°08'6 5.1
2016-Aug-22 12:05N 38°03' W 122°16'0 0.0
2016-Aug-22 11:33N 38°03' W 122°16'2 2.3
2016-Aug-22 10:34N 38°03' W 122°19'4 2.8
2016-Aug-22 09:10N 38°04' W 122°14'4 1.2
2016-Aug-22 05:32N 38°02' W 122°08'0 0.0
2016-Aug-22 04:32N 38°02' W 122°08'0 0.0
2016-Aug-22 03:33N 38°02' W 122°08'5 4.7
2016-Aug-22 02:33N 38°04' W 122°14'3 2.2
2016-Aug-22 01:21N 38°03' W 122°17'3 3.0
2016-Aug-22 00:31N 38°04' W 122°14'5 1.0
2016-Aug-21 19:33N 38°02' W 122°08'0 0.0
2016-Aug-21 18:27N 38°02' W 122°08'0 0.0
2016-Aug-21 08:25N 38°02' W 122°08'0 0.0
2016-Aug-21 07:12N 38°02' W 122°08'0 0.0
2016-Aug-21 04:28N 38°02' W 122°08'0 0.0
2016-Aug-21 02:26N 38°02' W 122°08'0 0.0
2016-Aug-21 01:33N 38°02' W 122°08'0 0.0
2016-Aug-20 18:33N 38°02' W 122°08'1 0.5
2016-Aug-20 17:33N 38°02' W 122°08'8 8.2
2016-Aug-20 16:32N 38°03' W 122°18'6 6.5
2016-Aug-20 15:33N 37°59' W 122°25'8 7.7
2016-Aug-20 14:34N 37°52' W 122°24'5 4.9
2016-Aug-20 13:34N 37°49' W 122°19'0 0.0
2016-Aug-20 12:33N 37°49' W 122°19'0 0.0
2016-Aug-20 11:34N 37°49' W 122°19'0 0.0
2016-Aug-20 10:34N 37°49' W 122°19'0 0.0
2016-Aug-20 09:34N 37°49' W 122°19'0 0.0
2016-Aug-20 08:34N 37°49' W 122°19'0 0.0
2016-Aug-20 07:34N 37°49' W 122°19'0 0.0
2016-Aug-20 06:33N 37°49' W 122°19'0 0.0
2016-Aug-20 05:34N 37°49' W 122°19'0 0.0
2016-Aug-20 04:33N 37°49' W 122°19'0 0.0
2016-Aug-20 03:34N 37°49' W 122°19'0 0.0
2016-Aug-20 02:34N 37°49' W 122°19'0 0.0
2016-Aug-20 01:34N 37°49' W 122°19'0 0.0
2016-Aug-20 00:34N 37°49' W 122°19'0 0.0
2016-Aug-19 23:33N 37°49' W 122°19'0 0.0
2016-Aug-19 22:34N 37°49' W 122°19'0 0.0
2016-Aug-19 21:34N 37°49' W 122°19'0 0.0
2016-Aug-19 20:34N 37°49' W 122°19'0 0.0
2016-Aug-19 19:33N 37°49' W 122°19'2 1.8
2016-Aug-19 18:33N 37°48' W 122°18'1 1.2
2016-Aug-19 17:34N 37°48' W 122°20'2 1.6
2016-Aug-19 16:33N 37°49' W 122°19'0 0.0
2016-Aug-19 15:33N 37°49' W 122°19'0 0.0
2016-Aug-19 14:34N 37°49' W 122°19'0 0.0
2016-Aug-19 13:34N 37°49' W 122°19'0 0.0
2016-Aug-19 12:33N 37°49' W 122°19'0 0.0
2016-Aug-19 11:33N 37°49' W 122°19'0 0.0
2016-Aug-19 10:33N 37°49' W 122°19'0 0.0
2016-Aug-19 09:33N 37°49' W 122°19'0 0.0
2016-Aug-19 08:33N 37°49' W 122°19'0 0.0
2016-Aug-19 07:34N 37°49' W 122°19'0 0.0
2016-Aug-19 06:33N 37°49' W 122°19'0 0.0
2016-Aug-19 05:34N 37°49' W 122°19'2 1.6
2016-Aug-19 04:33N 37°49' W 122°20'6 5.8
2016-Aug-19 03:33N 37°54' W 122°22'0 0.0
2016-Aug-19 02:33N 37°54' W 122°22'3 2.6
2016-Aug-19 01:33N 37°53' W 122°25'2 1.8
2016-Aug-19 00:33N 37°54' W 122°23'3 2.8
2016-Aug-18 23:33N 37°52' W 122°24'7 7.4
2016-Aug-18 22:34N 37°46' W 122°18'0 0.0
2016-Aug-18 21:33N 37°46' W 122°18'0 0.4
2016-Aug-18 20:34N 37°46' W 122°19'0 0.0
2016-Aug-18 19:34N 37°46' W 122°19'0 0.4
2016-Aug-18 18:33N 37°46' W 122°18'0 0.1
2016-Aug-18 17:33N 37°46' W 122°18'3 2.9
2016-Aug-18 16:33N 37°49' W 122°19'0 0.0
2016-Aug-18 15:34N 37°49' W 122°19'0 0.0
2016-Aug-18 14:33N 37°49' W 122°19'0 0.0
2016-Aug-18 13:33N 37°49' W 122°19'0 0.0
2016-Aug-18 12:33N 37°49' W 122°19'0 0.0
2016-Aug-18 11:33N 37°49' W 122°19'0 0.0
2016-Aug-18 10:34N 37°49' W 122°19'0 0.0
2016-Aug-18 09:33N 37°49' W 122°19'0 0.0
2016-Aug-18 08:33N 37°49' W 122°19'0 0.0
2016-Aug-18 07:34N 37°49' W 122°19'0 0.0
2016-Aug-18 06:33N 37°49' W 122°19'0 0.0
2016-Aug-18 05:33N 37°49' W 122°19'0 0.0
2016-Aug-18 04:33N 37°49' W 122°19'0 0.0
2016-Aug-18 03:33N 37°49' W 122°19'2 1.6
2016-Aug-18 02:33N 37°48' W 122°20'1 0.6
2016-Aug-18 01:33N 37°48' W 122°19'2 1.6
2016-Aug-18 00:33N 37°49' W 122°19'0 0.0
2016-Aug-17 23:33N 37°49' W 122°19'2 1.6
2016-Aug-17 22:33N 37°48' W 122°20'1 0.9
2016-Aug-17 21:33N 37°49' W 122°20'0 0.0
2016-Aug-17 20:33N 37°49' W 122°20'0 0.0
2016-Aug-17 19:33N 37°49' W 122°20'2 2.4
2016-Aug-17 18:33N 37°48' W 122°17'2 1.8
2016-Aug-17 17:33N 37°48' W 122°20'8 8.0
2016-Aug-17 16:33N 37°54' W 122°25'1 1.1
2016-Aug-17 15:33N 37°56' W 122°25'1 0.9
2016-Aug-17 14:33N 37°55' W 122°24'1 1.3
2016-Aug-17 13:33N 37°53' W 122°25'7 7.4
2016-Aug-17 12:34N 37°48' W 122°19'0 0.4
2016-Aug-17 11:34N 37°48' W 122°18'2 1.7
2016-Aug-17 10:33N 37°49' W 122°19'0 0.1
2016-Aug-17 09:33N 37°49' W 122°19'0 0.0
2016-Aug-17 08:33N 37°49' W 122°19'0 0.0
2016-Aug-17 07:33N 37°49' W 122°19'0 0.0
2016-Aug-17 06:33N 37°49' W 122°19'0 0.0
2016-Aug-17 05:33N 37°49' W 122°19'0 0.0
2016-Aug-17 04:33N 37°49' W 122°19'  

Dump ship's entire track history